Time;durP1;ratioP1;P1;durP2;ratioP2;P2;SDS_P1;SDS_P2;PMS_P1;PMS_P2;Temp;Humidity;BMP_temperature;BMP_pressure;BME280_temperature;BME280_humidity;BME280_pressure;Samples;Min_cycle;Max_cycle;Signal;HPM_P1;HPM_P2
2023/04/21 00:00:25;;;;;;;21.45;6.88;;;9.00;99.90;;;;;;5028238;28;20056;-57
2023/04/21 00:02:53;;;;;;;15.32;5.28;;;9.00;99.90;;;;;;5047112;28;20049;-58
2023/04/21 00:05:21;;;;;;;12.23;5.53;;;9.10;99.90;;;;;;5042034;28;20068;-59
2023/04/21 00:07:49;;;;;;;12.60;5.60;;;10.20;99.90;;;;;;5038913;28;20053;-58
2023/04/21 00:10:16;;;;;;;13.93;5.35;;;9.10;99.90;;;;;;5028204;28;20041;-57
2023/04/21 00:12:44;;;;;;;17.08;6.45;;;9.20;99.90;;;;;;5029053;28;20049;-58
2023/04/21 00:15:12;;;;;;;16.63;6.03;;;9.10;99.90;;;;;;5028073;28;20634;-57
2023/04/21 00:17:40;;;;;;;11.40;5.03;;;9.10;99.90;;;;;;5030963;28;20046;-59
2023/04/21 00:20:09;;;;;;;19.80;5.70;;;9.10;99.90;;;;;;5036641;28;20052;-57
2023/04/21 00:22:37;;;;;;;18.27;6.10;;;9.10;99.90;;;;;;5047004;28;20049;-58
2023/04/21 00:25:05;;;;;;;16.88;4.85;;;9.00;99.90;;;;;;5052331;28;20053;-58
2023/04/21 00:27:32;;;;;;;20.65;5.88;;;9.00;99.90;;;;;;5051311;28;20045;-57
2023/04/21 00:30:00;;;;;;;10.80;5.60;;;9.00;99.90;;;;;;5017060;28;20072;-58
2023/04/21 00:32:28;;;;;;;12.48;6.00;;;8.90;99.90;;;;;;5045462;28;20417;-58
2023/04/21 00:34:57;;;;;;;11.93;5.70;;;8.90;99.90;;;;;;5044153;28;20048;-57
2023/04/21 00:37:25;;;;;;;10.32;5.82;;;8.90;99.90;;;;;;5066659;28;20040;-57
2023/04/21 00:39:52;;;;;;;16.98;6.15;;;8.90;99.90;;;;;;5058961;28;20045;-57
2023/04/21 00:42:20;;;;;;;17.70;6.30;;;8.90;99.90;;;;;;5054666;28;20052;-57
2023/04/21 00:44:47;;;;;;;22.48;8.18;;;8.80;99.90;;;;;;5068508;28;20407;-58
2023/04/21 00:47:15;;;;;;;15.32;5.60;;;8.80;99.90;;;;;;5065315;28;20068;-58
2023/04/21 00:49:43;;;;;;;14.50;5.80;;;8.80;99.90;;;;;;5061450;28;20052;-59
2023/04/21 00:52:10;;;;;;;13.02;6.25;;;8.80;99.90;;;;;;5051958;28;20049;-57
2023/04/21 00:54:38;;;;;;;24.85;8.20;;;8.80;99.90;;;;;;5067078;28;20434;-58
2023/04/21 00:57:07;;;;;;;14.25;6.15;;;8.70;99.90;;;;;;5067941;28;20048;-58
2023/04/21 00:59:35;;;;;;;12.95;5.55;;;8.60;99.90;;;;;;5058479;28;20045;-58
2023/04/21 01:02:03;;;;;;;15.35;6.38;;;8.70;99.90;;;;;;5051448;28;20048;-59
2023/04/21 01:04:35;;;;;;;22.27;6.47;;;8.70;99.90;;;;;;5062996;28;20041;-58
2023/04/21 01:52:02;;;;;;;14.73;6.47;;;8.40;99.90;;;;;;5038365;28;20051;-57
2023/04/21 01:54:30;;;;;;;15.77;7.53;;;;;;;;;;5035714;28;20055;-57
2023/04/21 01:56:58;;;;;;;12.75;7.15;;;8.30;99.90;;;;;;5053557;28;20041;-57
2023/04/21 01:59:27;;;;;;;10.70;6.50;;;8.30;99.90;;;;;;5028631;28;20041;-59
2023/04/21 02:01:55;;;;;;;14.23;6.43;;;8.30;99.90;;;;;;5000942;28;20064;-58
2023/04/21 02:04:23;;;;;;;12.73;5.68;;;8.30;99.90;;;;;;5033208;28;20045;-58
2023/04/21 02:06:51;;;;;;;16.27;7.47;;;8.30;99.90;;;;;;5029644;28;20041;-57
2023/04/21 02:09:18;;;;;;;14.40;6.85;;;8.30;99.90;;;;;;5035208;28;20041;-56
2023/04/21 02:11:46;;;;;;;14.57;6.82;;;8.30;99.90;;;;;;5050292;28;20053;-56
2023/04/21 02:14:14;;;;;;;17.92;6.57;;;8.40;99.90;;;;;;5035150;28;20037;-57
2023/04/21 02:16:41;;;;;;;16.58;7.18;;;8.30;99.90;;;;;;5033716;28;20053;-58
2023/04/21 02:19:09;;;;;;;14.95;6.82;;;8.30;99.90;;;;;;5030126;28;20394;-57
2023/04/21 02:21:37;;;;;;;16.80;6.63;;;8.40;99.90;;;;;;5032281;28;20052;-58
2023/04/21 02:24:04;;;;;;;17.50;7.60;;;8.40;99.90;;;;;;5033170;28;20504;-57
2023/04/21 02:26:32;;;;;;;14.30;6.22;;;8.40;99.90;;;;;;5035247;28;20072;-57
2023/04/21 02:29:01;;;;;;;14.63;6.35;;;;;;;;;;5035416;28;20060;-57
2023/04/21 02:31:29;;;;;;;14.77;5.95;;;8.40;99.90;;;;;;5050340;28;20108;-57
2023/04/21 02:33:57;;;;;;;13.40;6.47;;;8.40;99.90;;;;;;5031292;28;20045;-57
2023/04/21 02:36:25;;;;;;;12.45;5.80;;;8.30;99.90;;;;;;5032564;28;20420;-57
2023/04/21 02:38:57;;;;;;;11.10;5.38;;;8.30;99.90;;;;;;5036281;28;20061;-56
2023/04/21 02:41:24;;;;;;;12.70;5.90;;;8.40;99.90;;;;;;5034820;28;20053;-56
2023/04/21 02:43:52;;;;;;;11.68;5.93;;;8.40;99.90;;;;;;5026879;28;20646;-60
2023/04/21 02:46:21;;;;;;;18.00;5.55;;;8.30;99.90;;;;;;5036122;28;20044;-56
2023/04/21 02:48:49;;;;;;;15.90;7.13;;;8.40;99.90;;;;;;5032705;28;20049;-55
2023/04/21 02:51:17;;;;;;;13.70;6.88;;;8.30;99.90;;;;;;5038817;28;20056;-57
2023/04/21 02:53:45;;;;;;;14.25;6.97;;;8.30;99.90;;;;;;5034623;28;20045;-57
2023/04/21 02:56:12;;;;;;;16.77;6.97;;;8.30;99.90;;;;;;5050297;28;20068;-56
2023/04/21 02:58:40;;;;;;;19.55;7.15;;;8.30;99.90;;;;;;5031673;28;20405;-56
2023/04/21 03:01:08;;;;;;;19.95;7.30;;;8.30;99.90;;;;;;5030901;28;20033;-59
2023/04/21 03:03:35;;;;;;;10.85;6.32;;;8.30;99.90;;;;;;5026245;28;20056;-58
2023/04/21 03:06:04;;;;;;;13.68;6.78;;;8.30;99.90;;;;;;5032120;28;20052;-56
2023/04/21 03:08:32;;;;;;;14.60;7.30;;;8.30;99.90;;;;;;5044270;28;20111;-58
2023/04/21 03:11:00;;;;;;;13.93;6.75;;;8.30;99.90;;;;;;5034016;28;20053;-57
2023/04/21 03:13:27;;;;;;;17.58;8.15;;;8.30;99.90;;;;;;5018830;28;20057;-57
2023/04/21 03:15:56;;;;;;;11.38;6.10;;;8.20;99.90;;;;;;5032016;28;20048;-56
2023/04/21 03:18:23;;;;;;;14.27;7.03;;;8.20;99.90;;;;;;5032063;28;20042;-56
2023/04/21 03:20:51;;;;;;;13.88;7.28;;;8.20;99.90;;;;;;5027930;28;20045;-57
2023/04/21 03:23:19;;;;;;;12.75;6.82;;;8.20;99.90;;;;;;4999414;28;20500;-59
2023/04/21 03:25:47;;;;;;;10.27;6.70;;;8.20;99.90;;;;;;5026351;28;20040;-57
2023/04/21 03:28:15;;;;;;;16.08;6.38;;;8.20;99.90;;;;;;5023085;28;20048;-58
2023/04/21 03:30:43;;;;;;;14.27;6.60;;;8.30;99.90;;;;;;5036016;28;20416;-57
2023/04/21 03:33:10;;;;;;;14.00;6.85;;;8.20;99.90;;;;;;5027427;28;20053;-56
2023/04/21 03:35:38;;;;;;;14.15;7.32;;;8.20;99.90;;;;;;5031844;28;20037;-58
2023/04/21 03:38:07;;;;;;;10.90;6.50;;;8.20;99.90;;;;;;5027421;28;20063;-57
2023/04/21 03:40:35;;;;;;;14.73;6.53;;;8.30;99.90;;;;;;5022014;28;20485;-58
2023/04/21 03:43:03;;;;;;;11.65;6.50;;;8.20;99.90;;;;;;5026766;28;20052;-57
2023/04/21 03:45:34;;;;;;;14.10;6.27;;;8.20;99.90;;;;;;5032883;28;20056;-58
2023/04/21 03:48:03;;;;;;;13.00;6.28;;;8.20;99.90;;;;;;5033657;28;20297;-57
2023/04/21 03:50:31;;;;;;;13.55;6.30;;;8.20;99.90;;;;;;5037491;28;20049;-58
2023/04/21 03:52:59;;;;;;;14.95;7.05;;;8.20;99.90;;;;;;5030985;28;20076;-58
2023/04/21 03:55:28;;;;;;;13.38;6.50;;;8.20;99.90;;;;;;5036574;28;20037;-57
2023/04/21 03:57:59;;;;;;;11.35;6.45;;;8.20;99.90;;;;;;5014359;28;20049;-58
2023/04/21 04:00:29;;;;;;;;;;;8.20;99.90;;;;;;5034849;28;20108;-56
2023/04/21 04:03:00;;;;;;;11.90;6.20;;;8.20;99.90;;;;;;5013810;28;19921;-58
2023/04/21 04:05:34;;;;;;;10.90;7.07;;;8.10;99.90;;;;;;5045625;28;20052;-57
2023/04/21 04:08:02;;;;;;;12.65;6.45;;;8.10;99.90;;;;;;5021097;28;20050;-57
2023/04/21 04:10:30;;;;;;;14.40;7.40;;;;;;;;;;5043063;28;20049;-58
2023/04/21 04:12:58;;;;;;;15.55;7.53;;;8.10;99.90;;;;;;5049751;28;20406;-57
2023/04/21 04:15:26;;;;;;;10.93;6.50;;;8.10;99.90;;;;;;5048753;28;20052;-57
2023/04/21 04:17:54;;;;;;;13.27;6.82;;;8.10;99.90;;;;;;5050699;28;20072;-57
2023/04/21 04:20:22;;;;;;;13.13;6.15;;;8.10;99.90;;;;;;5020846;28;20057;-56
2023/04/21 04:22:49;;;;;;;15.15;6.70;;;8.10;99.90;;;;;;5013693;28;20398;-57
2023/04/21 04:25:17;;;;;;;12.73;7.13;;;8.10;99.90;;;;;;5048183;28;20052;-57
2023/04/21 04:27:45;;;;;;;14.75;6.55;;;8.10;99.90;;;;;;5051142;28;20049;-58
2023/04/21 04:30:12;;;;;;;11.85;6.85;;;8.10;99.90;;;;;;5041407;28;20052;-57
2023/04/21 04:32:40;;;;;;;13.18;7.90;;;8.10;99.90;;;;;;5038289;28;20057;-57
2023/04/21 04:35:09;;;;;;;14.75;7.05;;;8.00;99.90;;;;;;5043487;28;20060;-56
2023/04/21 04:37:37;;;;;;;14.63;6.93;;;8.00;99.90;;;;;;5044094;28;20064;-55
2023/04/21 04:40:08;;;;;;;14.43;7.18;;;8.00;99.90;;;;;;5039318;28;20045;-56
2023/04/21 04:42:38;;;;;;;14.00;7.25;;;8.00;99.90;;;;;;5036724;28;20045;-58
2023/04/21 04:45:10;;;;;;;15.13;7.30;;;8.00;99.90;;;;;;5045958;28;20045;-58
2023/04/21 04:47:38;;;;;;;14.25;6.72;;;8.10;99.90;;;;;;5032033;28;20045;-58
2023/04/21 04:50:06;;;;;;;15.73;8.13;;;8.10;99.90;;;;;;5042317;28;20337;-59
2023/04/21 04:52:34;;;;;;;16.20;6.93;;;8.10;99.90;;;;;;5047607;28;20492;-56
2023/04/21 04:55:03;;;;;;;12.02;7.05;;;;;;;;;;5046492;28;20052;-57
2023/04/21 04:57:30;;;;;;;13.85;8.15;;;8.10;99.90;;;;;;5027426;28;20412;-56
2023/04/21 04:59:58;;;;;;;16.27;7.47;;;8.00;99.90;;;;;;5034019;28;20048;-57
2023/04/21 05:02:25;;;;;;;17.17;8.32;;;8.10;99.90;;;;;;5039818;28;20325;-57
2023/04/21 05:04:53;;;;;;;17.38;7.93;;;8.00;99.90;;;;;;5040594;28;20075;-56
2023/04/21 05:07:21;;;;;;;15.85;6.78;;;8.00;99.90;;;;;;5031580;28;20045;-57
2023/04/21 05:09:49;;;;;;;16.08;6.88;;;8.00;99.90;;;;;;5041400;28;20042;-57
2023/04/21 05:12:16;;;;;;;14.75;6.72;;;10.50;99.90;;;;;;5030122;28;20042;-56
2023/04/21 05:14:44;;;;;;;13.85;7.28;;;7.90;99.90;;;;;;5024908;28;20053;-60
2023/04/21 05:17:11;;;;;;;15.20;6.72;;;7.90;99.90;;;;;;5047636;28;20041;-56
2023/04/21 05:19:39;;;;;;;11.93;6.50;;;7.90;99.90;;;;;;5033628;28;20060;-57
2023/04/21 05:22:06;;;;;;;10.95;5.82;;;7.30;99.90;;;;;;5049629;28;20033;-58
2023/04/21 05:24:34;;;;;;;10.98;6.53;;;7.90;99.90;;;;;;5041551;28;20048;-57
2023/04/21 05:27:02;;;;;;;9.73;6.10;;;7.80;99.90;;;;;;5030693;28;20049;-57
2023/04/21 05:29:30;;;;;;;16.33;7.05;;;7.80;99.90;;;;;;5033856;28;20045;-57
2023/04/21 05:31:59;;;;;;;12.32;6.60;;;7.80;99.90;;;;;;5047653;28;20053;-58
2023/04/21 05:34:26;;;;;;;13.20;7.30;;;7.80;99.90;;;;;;5040885;28;20041;-57
2023/04/21 05:36:54;;;;;;;13.02;7.28;;;7.80;99.90;;;;;;5047607;28;20044;-58
2023/04/21 05:39:22;;;;;;;10.90;6.55;;;7.80;99.90;;;;;;5042499;28;20052;-58
2023/04/21 05:41:49;;;;;;;14.93;7.60;;;7.80;99.90;;;;;;5039834;28;20041;-58
2023/04/21 05:44:17;;;;;;;14.15;6.65;;;7.80;99.90;;;;;;5020196;28;20048;-57
2023/04/21 05:46:45;;;;;;;14.32;7.32;;;7.80;99.90;;;;;;5034818;28;20049;-58
2023/04/21 05:49:13;;;;;;;12.10;6.47;;;7.80;99.90;;;;;;5022472;28;20041;-58
2023/04/21 05:51:40;;;;;;;14.65;7.38;;;7.70;99.90;;;;;;5039086;28;20398;-58
2023/04/21 05:54:08;;;;;;;14.20;7.05;;;7.70;99.90;;;;;;5040672;28;20045;-58
2023/04/21 05:56:36;;;;;;;16.45;7.13;;;7.80;99.90;;;;;;5036327;28;20052;-57
2023/04/21 05:59:05;;;;;;;15.65;7.13;;;7.70;99.90;;;;;;5046337;28;20048;-59
2023/04/21 06:01:36;;;;;;;15.27;7.78;;;7.70;99.90;;;;;;5036806;28;20045;-59
2023/04/21 06:04:03;;;;;;;17.63;7.87;;;7.70;99.90;;;;;;5042517;28;20049;-56
2023/04/21 06:06:32;;;;;;;15.30;7.72;;;7.80;99.90;;;;;;5048340;28;20052;-57
2023/04/21 06:09:00;;;;;;;15.32;7.07;;;7.80;99.90;;;;;;5047430;28;20052;-61
2023/04/21 06:11:29;;;;;;;17.90;8.45;;;7.80;99.90;;;;;;5040934;28;20041;-57
2023/04/21 06:13:58;;;;;;;17.95;8.32;;;7.80;99.90;;;;;;5037886;28;20056;-58
2023/04/21 06:16:26;;;;;;;15.20;7.68;;;7.80;99.90;;;;;;5027557;28;20049;-59
2023/04/21 06:18:54;;;;;;;22.00;9.23;;;7.90;99.90;;;;;;5034120;28;20088;-58
2023/04/21 06:21:22;;;;;;;16.50;8.73;;;7.90;99.90;;;;;;5011899;28;20053;-59
2023/04/21 06:23:50;;;;;;;22.25;9.20;;;8.00;99.90;;;;;;5011320;28;20500;-58
2023/04/21 06:26:17;;;;;;;18.83;8.82;;;8.10;99.90;;;;;;5044822;28;20048;-57
2023/04/21 06:28:45;;;;;;;25.15;9.68;;;8.00;99.90;;;;;;5025189;28;20049;-58
2023/04/21 06:31:14;;;;;;;20.85;10.05;;;8.10;99.90;;;;;;5027061;28;20077;-57
2023/04/21 06:33:45;;;;;;;23.03;10.73;;;8.10;99.90;;;;;;5039961;28;20045;-57
2023/04/21 06:36:13;;;;;;;24.45;9.98;;;9.20;99.90;;;;;;5029009;28;20046;-57
2023/04/21 06:38:42;;;;;;;28.67;10.93;;;8.10;99.90;;;;;;5045093;28;20309;-57
2023/04/21 06:41:10;;;;;;;25.60;10.85;;;8.20;99.90;;;;;;5037025;28;20053;-56
2023/04/21 06:43:37;;;;;;;25.63;10.20;;;8.20;99.90;;;;;;5031157;28;20040;-57
2023/04/21 06:46:05;;;;;;;23.63;11.73;;;8.20;99.90;;;;;;5043888;28;20052;-56
2023/04/21 06:48:32;;;;;;;33.75;11.43;;;8.30;99.90;;;;;;5043643;28;20070;-56
2023/04/21 06:51:01;;;;;;;30.20;13.13;;;8.30;99.90;;;;;;5043308;28;20080;-58
2023/04/21 06:53:32;;;;;;;35.30;12.75;;;8.40;99.90;;;;;;5068579;28;20495;-56
2023/04/21 06:55:59;;;;;;;30.23;13.48;;;8.40;99.90;;;;;;5060189;28;20048;-59
2023/04/21 06:58:32;;;;;;;22.47;11.67;;;8.40;99.90;;;;;;5041434;28;20045;-58
2023/04/21 07:01:00;;;;;;;30.70;13.40;;;8.50;99.90;;;;;;5045961;28;20049;-57
2023/04/21 07:03:28;;;;;;;28.90;12.82;;;8.60;99.90;;;;;;5057987;28;20044;-58
2023/04/21 07:05:56;;;;;;;26.75;11.13;;;8.60;99.90;;;;;;5053504;28;20056;-57
2023/04/21 07:08:24;;;;;;;33.08;12.90;;;8.60;99.90;;;;;;5059414;28;20048;-57
2023/04/21 07:10:52;;;;;;;23.10;10.32;;;8.70;99.90;;;;;;5061264;28;20045;-58
2023/04/21 07:13:19;;;;;;;25.58;10.60;;;8.70;99.90;;;;;;5056976;28;20048;-58
2023/04/21 07:15:47;;;;;;;35.97;11.77;;;11.10;99.90;;;;;;5048184;28;20041;-58
2023/04/21 07:18:15;;;;;;;23.65;11.40;;;;;;;;;;5053424;28;20040;-59
2023/04/21 07:20:46;;;;;;;29.10;10.38;;;8.80;99.90;;;;;;5061676;28;20052;-56
2023/04/21 07:23:14;;;;;;;21.40;10.05;;;8.80;99.90;;;;;;5061017;28;20036;-58
2023/04/21 07:25:41;;;;;;;25.35;11.38;;;8.90;99.90;;;;;;5052537;28;20040;-56
2023/04/21 07:28:09;;;;;;;19.67;10.63;;;8.90;99.90;;;;;;5053826;28;20049;-58
2023/04/21 07:30:37;;;;;;;22.70;10.25;;;9.00;99.90;;;;;;5055073;28;20496;-57
2023/04/21 07:33:05;;;;;;;31.13;11.93;;;9.00;99.90;;;;;;5053183;28;20298;-61
2023/04/21 07:35:32;;;;;;;24.48;10.27;;;9.10;99.90;;;;;;5057551;28;20047;-56
2023/04/21 07:38:00;;;;;;;30.08;10.85;;;9.10;99.90;;;;;;5059280;28;20036;-56
2023/04/21 07:40:29;;;;;;;29.88;11.88;;;9.10;99.90;;;;;;5057445;28;20041;-56
2023/04/21 07:42:57;;;;;;;26.97;11.33;;;9.20;99.90;;;;;;5061053;28;20420;-58
2023/04/21 07:45:25;;;;;;;30.90;11.00;;;9.10;99.90;;;;;;5052836;28;20530;-58
2023/04/21 07:47:53;;;;;;;26.73;10.73;;;9.20;99.90;;;;;;5048979;28;20048;-57
2023/04/21 07:50:21;;;;;;;24.45;11.13;;;9.20;99.90;;;;;;5050273;28;20045;-57
2023/04/21 07:52:49;;;;;;;28.00;11.13;;;9.20;99.90;;;;;;5035590;28;20512;-58
2023/04/21 07:55:17;;;;;;;19.70;10.35;;;9.20;99.90;;;;;;5029583;28;20056;-56
2023/04/21 07:57:44;;;;;;;20.70;10.38;;;9.20;99.90;;;;;;5038285;28;20400;-56
2023/04/21 08:00:13;;;;;;;23.77;9.48;;;9.30;99.90;;;;;;5010428;28;20048;-57
2023/04/21 08:02:40;;;;;;;19.13;10.13;;;9.30;99.90;;;;;;5034673;28;20050;-58
2023/04/21 08:05:08;;;;;;;23.63;10.18;;;9.30;99.90;;;;;;5043638;28;20526;-57
2023/04/21 08:07:37;;;;;;;20.23;9.68;;;9.30;99.90;;;;;;5029997;28;20224;-57
2023/04/21 08:10:06;;;;;;;24.90;11.10;;;9.30;99.90;;;;;;5048033;28;20052;-56
2023/04/21 08:12:34;;;;;;;26.58;10.38;;;9.40;99.90;;;;;;5034574;28;20481;-57
2023/04/21 08:15:07;;;;;;;21.63;10.30;;;9.40;99.90;;;;;;5035405;28;20049;-56
2023/04/21 08:17:34;;;;;;;25.83;10.02;;;9.40;99.90;;;;;;5031215;28;20053;-59
2023/04/21 08:20:03;;;;;;;29.45;12.13;;;9.50;99.90;;;;;;5028884;28;20053;-58
2023/04/21 08:22:30;;;;;;;23.75;9.68;;;9.50;99.90;;;;;;5031760;28;20053;-57
2023/04/21 08:24:58;;;;;;;21.85;10.32;;;9.50;99.90;;;;;;5046794;28;20056;-57
2023/04/21 08:27:26;;;;;;;25.95;9.88;;;9.50;99.90;;;;;;5018457;28;20857;-58
2023/04/21 08:29:53;;;;;;;25.30;11.07;;;9.60;99.90;;;;;;5031914;28;20045;-59
2023/04/21 08:32:23;;;;;;;21.67;10.43;;;9.60;99.90;;;;;;5028508;28;20585;-58
2023/04/21 08:34:52;;;;;;;26.25;11.48;;;9.60;99.90;;;;;;5017226;28;20037;-57
2023/04/21 08:37:20;;;;;;;21.40;9.52;;;9.60;99.90;;;;;;5046759;28;20044;-58
2023/04/21 08:39:53;;;;;;;31.88;10.80;;;9.60;99.90;;;;;;5002012;28;20061;-58
2023/04/21 08:42:21;;;;;;;20.25;9.80;;;9.60;99.90;;;;;;5035406;28;20485;-56
2023/04/21 08:44:48;;;;;;;23.02;10.40;;;9.60;99.90;;;;;;5050657;28;20052;-57
2023/04/21 08:47:19;;;;;;;21.85;9.93;;;9.60;99.90;;;;;;5027768;28;20048;-56
2023/04/21 08:49:50;;;;;;;24.73;10.27;;;9.60;99.90;;;;;;5045974;28;20045;-55
2023/04/21 08:52:17;;;;;;;22.48;9.80;;;9.60;99.90;;;;;;5061251;28;20044;-57
2023/04/21 08:54:46;;;;;;;24.33;10.18;;;9.50;99.90;;;;;;5066355;28;20063;-58
2023/04/21 08:57:14;;;;;;;26.27;10.98;;;9.50;99.90;;;;;;5050209;28;20049;-58
2023/04/21 08:59:44;;;;;;;27.83;12.40;;;9.50;99.90;;;;;;5051158;28;20049;-58
2023/04/21 09:02:14;;;;;;;;;;;9.50;99.90;;;;;;5059117;28;20488;-58
2023/04/21 09:04:50;;;;;;;32.00;11.23;;;9.50;99.90;;;;;;5058518;28;20379;-57
2023/04/21 09:07:41;;;;;;;41.13;13.55;;;9.40;99.90;;;;;;5052876;28;20064;-59
2023/04/21 09:10:08;;;;;;;32.13;13.38;;;9.40;99.90;;;;;;5050671;28;20399;-58
2023/04/21 09:12:39;;;;;;;32.92;12.40;;;9.30;99.90;;;;;;5067093;28;20048;-57
2023/04/21 09:15:10;;;;;;;27.02;11.45;;;9.30;99.90;;;;;;5070169;28;20051;-56
2023/04/21 09:17:38;;;;;;;37.47;14.23;;;9.30;99.90;;;;;;5066225;28;20055;-58
2023/04/21 09:20:15;;;;;;;26.27;12.30;;;9.30;99.90;;;;;;5070897;28;20693;-57
2023/04/21 09:22:43;;;;;;;27.13;13.88;;;9.30;99.90;;;;;;5054840;28;20041;-57
2023/04/21 09:25:16;;;;;;;33.58;13.40;;;9.30;99.90;;;;;;5058870;28;20056;-57
2023/04/21 09:27:45;;;;;;;42.15;13.75;;;9.30;99.90;;;;;;5063470;28;20048;-57
2023/04/21 09:30:18;;;;;;;28.30;13.38;;;9.30;99.90;;;;;;5059049;28;20063;-55
2023/04/21 09:32:46;;;;;;;30.10;14.35;;;9.30;99.90;;;;;;5070147;28;20044;-55
2023/04/21 09:35:14;;;;;;;31.60;13.75;;;9.30;99.90;;;;;;5068683;28;20064;-58
2023/04/21 09:37:44;;;;;;;31.20;13.95;;;9.30;99.90;;;;;;5055021;28;20056;-57
2023/04/21 09:40:16;;;;;;;32.83;14.82;;;9.30;99.90;;;;;;5050692;28;20808;-58
2023/04/21 09:42:44;;;;;;;37.70;14.60;;;9.30;99.90;;;;;;5049814;28;20044;-56
2023/04/21 09:45:16;;;;;;;27.05;12.65;;;9.30;99.90;;;;;;5051033;28;20060;-57
2023/04/21 09:48:08;;;;;;;29.08;12.25;;;9.40;99.90;;;;;;5059879;28;20608;-56
2023/04/21 09:50:37;;;;;;;25.77;12.45;;;9.50;99.90;;;;;;5043426;28;20061;-58
2023/04/21 09:53:27;;;;;;;21.63;10.85;;;9.50;99.90;;;;;;5041809;28;20543;-57
2023/04/21 09:55:57;;;;;;;26.23;12.43;;;9.60;99.90;;;;;;5050433;28;20408;-57
2023/04/21 09:58:27;;;;;;;19.00;10.30;;;9.70;99.90;;;;;;5038792;28;20366;-55
2023/04/21 10:00:56;;;;;;;18.77;12.10;;;9.70;99.90;;;;;;5029847;28;20056;-55
2023/04/21 10:03:27;;;;;;;19.60;9.93;;;9.70;99.90;;;;;;5049171;28;20061;-57
2023/04/21 10:05:55;;;;;;;22.98;10.30;;;9.70;99.90;;;;;;5034766;28;20056;-57
2023/04/21 10:08:23;;;;;;;22.02;10.38;;;9.80;99.90;;;;;;5024606;28;20056;-55
2023/04/21 10:10:51;;;;;;;19.58;9.35;;;9.70;99.90;;;;;;5050266;28;20369;-55
2023/04/21 10:13:20;;;;;;;13.55;8.13;;;9.80;99.90;;;;;;5036714;28;20038;-55
2023/04/21 10:15:48;;;;;;;18.40;9.40;;;9.80;99.90;;;;;;5035721;28;20054;-56
2023/04/21 10:18:21;;;;;;;24.50;9.50;;;9.90;99.90;;;;;;5047474;28;20056;-56
2023/04/21 10:20:57;;;;;;;19.05;10.25;;;10.00;99.90;;;;;;5049909;28;20528;-55
2023/04/21 10:23:44;;;;;;;20.75;10.57;;;10.00;99.90;;;;;;5049257;28;20041;-56
2023/04/21 10:26:18;;;;;;;17.75;10.30;;;10.20;99.90;;;;;;5050023;28;20580;-56
2023/04/21 10:28:58;;;;;;;15.50;9.40;;;10.30;99.90;;;;;;5048381;28;20041;-56
2023/04/21 10:31:35;;;;;;;;;;;10.60;99.90;;;;;;5032405;28;20060;-56
2023/04/21 10:34:08;;;;;;;15.27;7.80;;;10.70;99.90;;;;;;5049354;28;19924;-57
2023/04/21 10:36:47;;;;;;;15.25;8.38;;;10.90;99.90;;;;;;5016330;28;20045;-56
2023/04/21 10:39:26;;;;;;;15.07;7.68;;;11.20;99.90;;;;;;5046230;28;20041;-55
2023/04/21 10:42:19;;;;;;;10.50;6.55;;;11.40;99.90;;;;;;5038036;28;20056;-56
2023/04/21 10:45:01;;;;;;;13.45;6.75;;;11.30;99.90;;;;;;5044614;28;20041;-56
2023/04/21 10:47:42;;;;;;;12.18;6.45;;;11.40;99.90;;;;;;5045019;28;20056;-55
2023/04/21 10:50:17;;;;;;;8.75;5.78;;;11.40;99.90;;;;;;5028942;28;20072;-57
2023/04/21 10:53:08;;;;;;;11.93;6.80;;;11.40;99.90;;;;;;5012224;28;20046;-56
2023/04/21 10:55:37;;;;;;;7.75;5.53;;;11.90;99.90;;;;;;5025969;28;20045;-57
2023/04/21 10:58:10;;;;;;;10.45;5.40;;;11.50;99.90;;;;;;5035789;28;20056;-57
2023/04/21 11:00:38;;;;;;;10.38;4.82;;;11.50;99.90;;;;;;5046398;28;20041;-57
2023/04/21 11:03:06;;;;;;;9.60;4.80;;;11.50;99.90;;;;;;5017046;28;20045;-57
2023/04/21 11:05:39;;;;;;;8.23;4.50;;;11.40;99.90;;;;;;5029026;28;20064;-56
2023/04/21 11:08:13;;;;;;;12.07;5.97;;;11.40;99.90;;;;;;5030107;28;20053;-55
2023/04/21 11:10:43;;;;;;;8.90;4.90;;;11.30;99.90;;;;;;5031042;28;20049;-56
2023/04/21 11:13:11;;;;;;;8.40;5.38;;;11.30;99.90;;;;;;5046125;28;20041;-56
2023/04/21 11:15:39;;;;;;;8.32;4.72;;;11.30;99.90;;;;;;5019921;28;20401;-56
2023/04/21 11:18:08;;;;;;;8.13;5.72;;;11.30;99.90;;;;;;5039713;28;20049;-57
2023/04/21 11:20:40;;;;;;;7.35;4.93;;;11.30;99.90;;;;;;5033260;28;20052;-57
2023/04/21 11:23:08;;;;;;;12.05;5.43;;;11.20;99.90;;;;;;5047515;28;20040;-57
2023/04/21 11:25:35;;;;;;;9.07;5.15;;;11.20;99.90;;;;;;5044482;28;20048;-56
2023/04/21 11:28:05;;;;;;;10.77;5.32;;;11.10;99.90;;;;;;5045314;28;20071;-57
2023/04/21 11:30:33;;;;;;;11.10;5.50;;;11.10;99.90;;;;;;5048695;28;20052;-56
2023/04/21 11:33:01;;;;;;;13.18;6.03;;;10.90;99.90;;;;;;5025969;28;20045;-56
2023/04/21 11:35:30;;;;;;;13.73;6.15;;;10.60;99.90;;;;;;5028205;28;20050;-56
2023/04/21 11:38:04;;;;;;;10.10;5.35;;;10.70;99.90;;;;;;5026743;28;20067;-56
2023/04/21 11:40:47;;;;;;;11.48;5.60;;;10.60;99.90;;;;;;5030693;28;20048;-57
2023/04/21 11:43:14;;;;;;;13.35;6.53;;;10.50;99.90;;;;;;5026644;28;20041;-56
2023/04/21 11:45:42;;;;;;;14.20;6.70;;;10.60;99.90;;;;;;5048292;28;20404;-57
2023/04/21 11:48:18;;;;;;;12.35;6.63;;;10.60;99.90;;;;;;5036233;28;20539;-57
2023/04/21 11:50:47;;;;;;;15.75;6.40;;;10.60;99.90;;;;;;5028123;28;20404;-57
2023/04/21 11:53:16;;;;;;;12.82;6.60;;;10.60;99.90;;;;;;5034387;28;20060;-57
2023/04/21 11:55:45;;;;;;;18.77;7.25;;;10.60;99.90;;;;;;5034408;28;20511;-57
2023/04/21 11:58:15;;;;;;;17.73;7.35;;;10.50;99.90;;;;;;5044643;28;20048;-55
2023/04/21 12:00:46;;;;;;;16.20;7.05;;;10.50;99.90;;;;;;5040647;28;20041;-55
2023/04/21 12:03:14;;;;;;;16.30;8.80;;;10.40;99.90;;;;;;5036579;28;20054;-55
2023/04/21 12:05:42;;;;;;;19.37;8.30;;;10.40;99.90;;;;;;5033385;28;20485;-55
2023/04/21 12:08:15;;;;;;;17.42;7.53;;;10.30;99.90;;;;;;5043061;28;20089;-56
2023/04/21 12:10:47;;;;;;;13.50;8.10;;;10.30;99.90;;;;;;5042438;28;20048;-56
2023/04/21 12:13:22;;;;;;;17.05;8.07;;;10.30;99.90;;;;;;5037447;28;20045;-55
2023/04/21 12:15:50;;;;;;;11.70;7.32;;;10.40;99.90;;;;;;5028062;28;20515;-56
2023/04/21 12:18:18;;;;;;;15.10;7.15;;;10.50;99.90;;;;;;5031811;28;20489;-55
2023/04/21 12:20:50;;;;;;;10.80;5.60;;;10.60;99.90;;;;;;5028356;28;20037;-56
2023/04/21 12:23:20;;;;;;;7.28;4.55;;;10.70;99.90;;;;;;5031479;28;20041;-56
2023/04/21 12:25:47;;;;;;;8.75;3.75;;;10.80;99.90;;;;;;5029395;28;20042;-58
2023/04/21 12:28:16;;;;;;;7.47;3.75;;;11.10;99.90;;;;;;5047447;28;20063;-58
2023/04/21 12:30:44;;;;;;;9.20;4.13;;;11.80;99.90;;;;;;5047090;28;20037;-58
2023/04/21 12:33:12;;;;;;;9.20;3.55;;;13.00;99.90;;;;;;5044608;28;20048;-58
2023/04/21 12:35:40;;;;;;;6.80;4.45;;;13.00;99.90;;;;;;5031520;28;20057;-59
2023/04/21 12:38:07;;;;;;;8.27;3.97;;;13.50;99.90;;;;;;5035649;28;20056;-58
2023/04/21 12:40:35;;;;;;;7.95;3.70;;;13.80;99.90;;;;;;5046122;28;20043;-60
2023/04/21 12:43:02;;;;;;;6.30;3.75;;;14.10;99.90;;;;;;5047656;28;20045;-58
2023/04/21 12:45:31;;;;;;;7.05;3.45;;;14.60;99.90;;;;;;5025927;28;20061;-58
2023/04/21 12:47:59;;;;;;;5.88;3.30;;;14.80;99.90;;;;;;5033272;28;20044;-58
2023/04/21 12:50:27;;;;;;;7.22;3.40;;;15.00;99.90;;;;;;5031784;28;20479;-60
2023/04/21 12:52:55;;;;;;;5.22;3.03;;;15.10;99.90;;;;;;5044808;28;20060;-60
2023/04/21 12:55:23;;;;;;;6.13;3.60;;;15.30;99.90;;;;;;5047554;28;20084;-59
2023/04/21 12:57:51;;;;;;;6.40;3.30;;;15.50;99.90;;;;;;5018614;28;20072;-58
2023/04/21 13:00:19;;;;;;;4.82;3.15;;;15.60;99.90;;;;;;5046144;28;20037;-58
2023/04/21 13:02:47;;;;;;;5.13;2.92;;;15.40;99.90;;;;;;5028527;28;20056;-58
2023/04/21 13:05:14;;;;;;;6.40;3.13;;;15.10;99.90;;;;;;5011341;28;20389;-58
2023/04/21 13:07:42;;;;;;;5.97;2.97;;;14.70;99.90;;;;;;5031611;28;20064;-57
2023/04/21 13:10:10;;;;;;;8.00;3.30;;;14.40;99.90;;;;;;5036374;28;20049;-60
2023/04/21 13:12:40;;;;;;;9.43;3.65;;;14.50;99.90;;;;;;5037091;28;20060;-59
2023/04/21 13:15:08;;;;;;;9.93;3.85;;;14.70;99.90;;;;;;5017245;28;20041;-59
2023/04/21 13:17:36;;;;;;;5.40;3.53;;;14.70;99.90;;;;;;5039605;28;20041;-59
2023/04/21 13:20:04;;;;;;;7.03;2.83;;;15.00;99.90;;;;;;5039592;28;20056;-59
2023/04/21 13:22:32;;;;;;;6.60;3.33;;;15.10;99.90;;;;;;5037017;28;20064;-59
2023/04/21 13:25:00;;;;;;;5.00;3.25;;;15.10;99.90;;;;;;5031221;28;20045;-59
2023/04/21 13:27:28;;;;;;;9.05;3.38;;;14.90;99.90;;;;;;5030679;28;20056;-58
2023/04/21 13:29:56;;;;;;;6.07;3.10;;;14.90;99.90;;;;;;5036618;28;20041;-60
2023/04/21 13:32:24;;;;;;;7.85;3.47;;;14.70;99.90;;;;;;5045667;28;20512;-58
2023/04/21 13:34:53;;;;;;;7.00;3.78;;;14.80;99.90;;;;;;5031228;28;20046;-59
2023/04/21 13:37:21;;;;;;;7.10;3.40;;;14.80;99.90;;;;;;5030016;28;20055;-58
2023/04/21 13:39:48;;;;;;;7.25;3.20;;;14.80;99.90;;;;;;5032604;28;20046;-59